Guide — WDE7328 — position and weather

sailwx.info

Track history (hours):
 
Tides and Currents Weather Stations Pressure Air Temp Water Temp Dewpoint Dewpoint Depression Visibility Wind Speed Wind Dir Waves Ship Positions

Guide

Owner: Crowley Marine Services, SEATTLE, WA. More information available from US FCC via Universal Licensing System and Coast Guard Vessel Documentation Center.

Last reported at 2017-Jan-17 18:29 UTC. Time now 2017-Jan-17 19:11 UTC.
Position N 47°18' W 122°26'.

Length 34 m; draft 5.1 m.

Type: Tug. MMSI: 366759530.

Date/timePositionNaut miles runAvg speedWind from/ knotsBaromVisibWave heightAir tempDewpointWater temp
2017-Jan-17 18:29N 47°18' W 122°26'0 0.0
2017-Jan-17 17:33N 47°18' W 122°26'0 0.0
2017-Jan-17 16:29N 47°18' W 122°26'2 2.2
2017-Jan-17 15:24N 47°15' W 122°26'0 0.0
2017-Jan-17 14:32N 47°15' W 122°26'0 0.0
2017-Jan-17 13:33N 47°15' W 122°26'1 1.0
2017-Jan-17 12:30N 47°16' W 122°25'1 1.0
2017-Jan-17 11:27N 47°16' W 122°23'1 0.6
2017-Jan-17 10:33N 47°15' W 122°23'2 2.1
2017-Jan-17 09:31N 47°15' W 122°26'0 0.0
2017-Jan-17 08:31N 47°15' W 122°26'0 0.0
2017-Jan-17 07:33N 47°15' W 122°26'0 0.0
2017-Jan-17 06:28N 47°15' W 122°26'0 0.0
2017-Jan-17 05:32N 47°15' W 122°26'0 0.0
2017-Jan-17 04:33N 47°15' W 122°26'0 0.0
2017-Jan-17 03:33N 47°15' W 122°26'0 0.0
2017-Jan-17 02:33N 47°15' W 122°26'2 1.6
2017-Jan-17 01:33N 47°16' W 122°24'0 0.4
2017-Jan-17 00:32N 47°17' W 122°25'2 1.7
2017-Jan-16 23:33N 47°16' W 122°23'2 1.9
2017-Jan-16 22:30N 47°15' W 122°26'0 0.0
2017-Jan-16 21:20N 47°15' W 122°26'0 0.0
2017-Jan-16 20:29N 47°15' W 122°26'0 0.0
2017-Jan-16 19:28N 47°15' W 122°26'0 0.0
2017-Jan-16 18:33N 47°15' W 122°26'0 0.0
2017-Jan-16 17:33N 47°15' W 122°26'0 0.0
2017-Jan-16 16:33N 47°15' W 122°26'0 0.0
2017-Jan-16 15:24N 47°15' W 122°26'0 0.0
2017-Jan-16 14:14N 47°15' W 122°26'0 0.0
2017-Jan-16 13:33N 47°15' W 122°26'0 0.0
2017-Jan-16 12:28N 47°15' W 122°26'0 0.0
2017-Jan-16 04:11N 47°15' W 122°26'1 1.2
2017-Jan-16 03:16N 47°16' W 122°25'1 1.9
2017-Jan-16 02:31N 47°17' W 122°26'2 2.4
2017-Jan-16 01:33N 47°16' W 122°23'0 0.5
2017-Jan-16 00:29N 47°16' W 122°23'0 0.3
2017-Jan-15 23:33N 47°16' W 122°23'2 1.7
2017-Jan-15 22:33N 47°17' W 122°25'2 1.3
2017-Jan-15 21:13N 47°15' W 122°26'0 0.0
2017-Jan-15 20:33N 47°15' W 122°26'0 0.0
2017-Jan-15 19:28N 47°15' W 122°26'0 0.0
2017-Jan-15 18:32N 47°15' W 122°26'1 1.1
2017-Jan-15 17:31N 47°16' W 122°25'0 0.0
2017-Jan-15 16:33N 47°16' W 122°25'2 1.6
2017-Jan-15 15:33N 47°18' W 122°26'0 0.0
2017-Jan-15 14:31N 47°18' W 122°26'1 1.4
2017-Jan-15 13:34N 47°17' W 122°25'1 1.3
2017-Jan-15 12:33N 47°18' W 122°26'1 1.3
2017-Jan-15 11:33N 47°17' W 122°25'2 1.1
2017-Jan-15 10:06N 47°15' W 122°23'2 3.1
2017-Jan-15 09:33N 47°17' W 122°25'1 0.3
2017-Jan-15 05:33N 47°18' W 122°26'3 2.2
2017-Jan-15 04:19N 47°16' W 122°23'2 3.1
2017-Jan-15 03:33N 47°17' W 122°26'2 2.1
2017-Jan-15 02:33N 47°16' W 122°23'1 1.4
2017-Jan-15 01:33N 47°17' W 122°25'2 1.7
2017-Jan-15 00:33N 47°16' W 122°23'0 0.0
2017-Jan-14 23:33N 47°16' W 122°23'2 0.5
2017-Jan-14 19:29N 47°15' W 122°26'5 4.9
2017-Jan-14 18:33N 47°20' W 122°27'8 8.4
2017-Jan-14 17:33N 47°28' W 122°25'8 8.1
2017-Jan-14 16:33N 47°36' W 122°22'1 1.2
2017-Jan-14 15:33N 47°35' W 122°21'0 0.0
2017-Jan-14 14:33N 47°35' W 122°21'0 0.0
2017-Jan-14 13:33N 47°35' W 122°21'0 0.0
2017-Jan-14 12:33N 47°35' W 122°21'0 0.0
2017-Jan-14 11:33N 47°35' W 122°21'0 0.0
2017-Jan-14 10:33N 47°35' W 122°21'0 0.0
2017-Jan-14 09:33N 47°35' W 122°21'0 0.0
2017-Jan-14 08:33N 47°35' W 122°21'0 0.0
2017-Jan-14 07:33N 47°35' W 122°21'0 0.1
2017-Jan-14 06:33N 47°35' W 122°21'4 3.8
2017-Jan-14 05:33N 47°33' W 122°25'1110.8
2017-Jan-14 04:33N 47°22' W 122°22'6 6.3
2017-Jan-14 03:33N 47°17' W 122°25'0 0.1
2017-Jan-13 23:33N 47°17' W 122°26'0 0.3
2017-Jan-13 22:33N 47°17' W 122°25'2 1.9
2017-Jan-13 21:33N 47°16' W 122°23'2 1.6
2017-Jan-13 20:18N 47°15' W 122°26'0 0.0
2017-Jan-13 19:33N 47°15' W 122°26'0 0.0
2017-Jan-13 18:33N 47°15' W 122°26'0 0.0
2017-Jan-13 17:33N 47°15' W 122°26'1 0.9
2017-Jan-13 16:33N 47°16' W 122°26'2 2.4
2017-Jan-13 15:33N 47°16' W 122°23'3 2.2
2017-Jan-13 14:15N 47°18' W 122°26'0 0.2
2017-Jan-13 13:33N 47°18' W 122°26'0 0.0
2017-Jan-13 12:33N 47°18' W 122°26'0 0.0
2017-Jan-13 11:33N 47°18' W 122°26'0 0.0
2017-Jan-13 10:33N 47°18' W 122°26'0 0.0
2017-Jan-13 09:31N 47°18' W 122°26'0 0.0
2017-Jan-13 08:33N 47°18' W 122°26'0 0.0
2017-Jan-13 07:14N 47°18' W 122°26'0 0.0
2017-Jan-13 06:33N 47°18' W 122°26'0 0.0
2017-Jan-13 05:33N 47°18' W 122°26'3 2.7
2017-Jan-13 04:31N 47°16' W 122°23'1 1.0
2017-Jan-13 03:33N 47°16' W 122°24'2 1.8
2017-Jan-13 02:33N 47°17' W 122°26'1 1.2
2017-Jan-13 01:33N 47°16' W 122°26'1 0.9
2017-Jan-13 00:32N 47°15' W 122°26'0 0.0
2017-Jan-12 23:33N 47°15' W 122°26'0 0.0
2017-Jan-12 22:33N 47°15' W 122°26'0 0.0
2017-Jan-12 21:33N 47°15' W 122°26'0 0.0
2017-Jan-12 20:33N 47°15' W 122°26'0 0.0
2017-Jan-12 19:33N 47°15' W 122°26'0 0.0
2017-Jan-12 18:33N 47°15' W 122°26'0 0.0
2017-Jan-12 17:33N 47°15' W 122°26'0 0.0
2017-Jan-12 16:33N 47°15' W 122°26'0 0.0
2017-Jan-12 15:33N 47°15' W 122°26'1 1.3
2017-Jan-12 14:34N 47°17' W 122°26'0 0.1
2017-Jan-12 13:33N 47°17' W 122°25'0 0.1
2017-Jan-12 12:34N 47°17' W 122°26'1 1.1
2017-Jan-12 11:33N 47°18' W 122°26'0 0.0
2017-Jan-12 10:33N 47°18' W 122°26'0 0.0
2017-Jan-12 09:33N 47°18' W 122°26'0 0.0
2017-Jan-12 08:33N 47°18' W 122°26'0 0.0
2017-Jan-12 07:33N 47°18' W 122°26'0 0.0
2017-Jan-12 06:28N 47°18' W 122°26'0 0.0
2017-Jan-12 05:32N 47°18' W 122°26'0 0.0
2017-Jan-12 04:33N 47°18' W 122°26'0 0.0
2017-Jan-12 03:33N 47°18' W 122°26'2 2.3
2017-Jan-12 02:33N 47°16' W 122°24'0 0.0
2017-Jan-12 01:22N 47°16' W 122°24'0 0.5
2017-Jan-12 00:32N 47°16' W 122°23'3 3.2
2017-Jan-11 23:30N 47°18' W 122°27'7 7.0
2017-Jan-11 22:33N 47°24' W 122°22'1111.0
2017-Jan-11 21:33N 47°34' W 122°26'3 3.5
2017-Jan-11 20:33N 47°35' W 122°21'0 0.0
2017-Jan-11 19:33N 47°35' W 122°21'0 0.0
2017-Jan-11 18:33N 47°35' W 122°21'0 0.2
2017-Jan-11 17:33N 47°35' W 122°21'4 4.4
2017-Jan-11 16:33N 47°32' W 122°25'9 8.7
2017-Jan-11 15:33N 47°24' W 122°22'7 3.3
2017-Jan-11 13:31N 47°18' W 122°26'0 0.0
2017-Jan-11 12:11N 47°18' W 122°26'3 3.5
2017-Jan-11 11:26N 47°16' W 122°23'0 0.3
2017-Jan-11 10:33N 47°16' W 122°24'2 2.3
2017-Jan-11 09:31N 47°18' W 122°26'0 0.1
2017-Jan-11 07:31N 47°18' W 122°26'3 2.6
2017-Jan-11 06:24N 47°15' W 122°23'1 1.0
2017-Jan-11 05:28N 47°16' W 122°24'2 2.2
2017-Jan-11 04:32N 47°18' W 122°26'3 2.2
2017-Jan-11 03:19N 47°16' W 122°23'2 2.7
2017-Jan-11 02:33N 47°17' W 122°26'1 1.1
2017-Jan-11 01:33N 47°16' W 122°25'1 0.5
2017-Jan-10 23:21N 47°15' W 122°26'0 0.0
2017-Jan-10 22:30N 47°15' W 122°26'0 0.1
2017-Jan-10 21:33N 47°15' W 122°26'1 1.5
2017-Jan-10 20:33N 47°17' W 122°25'2 1.5
2017-Jan-10 19:33N 47°15' W 122°26'0 0.0
2017-Jan-10 18:33N 47°15' W 122°26'0 0.0
2017-Jan-10 17:33N 47°15' W 122°26'0 0.0
2017-Jan-10 16:33N 47°15' W 122°26'0 0.3
2017-Jan-10 15:33N 47°16' W 122°26'2 2.0
2017-Jan-10 14:27N 47°16' W 122°23'2 2.4
2017-Jan-10 13:33N 47°17' W 122°25'2 2.0
2017-Jan-10 12:33N 47°16' W 122°23'2 2.0
2017-Jan-10 11:33N 47°15' W 122°26'0 0.0
2017-Jan-10 10:33N 47°15' W 122°26'0 0.0
2017-Jan-10 09:33N 47°15' W 122°26'0 0.0
2017-Jan-10 08:33N 47°15' W 122°26'0 0.0
2017-Jan-10 07:33N 47°15' W 122°26'0 0.0
2017-Jan-10 06:31N 47°15' W 122°26'0 0.0
2017-Jan-10 05:33N 47°15' W 122°26'0 0.0
2017-Jan-10 04:31N 47°15' W 122°26'0 0.0
2017-Jan-10 03:33N 47°15' W 122°26'0 0.0
2017-Jan-10 02:31N 47°15' W 122°26'2 1.6
2017-Jan-10 01:26N 47°16' W 122°24'1 0.7
2017-Jan-10 00:29N 47°15' W 122°23'2 0.5
2017-Jan-09 20:08N 47°15' W 122°26'5 7.9
2017-Jan-09 19:33N 47°20' W 122°27'9 8.9
2017-Jan-09 18:33N 47°28' W 122°25'7 7.5
2017-Jan-09 17:33N 47°35' W 122°21'0 0.0
2017-Jan-09 16:33N 47°35' W 122°21'0 0.1
2017-Jan-09 15:33N 47°35' W 122°21'0 0.3
2017-Jan-09 14:33N 47°35' W 122°21'4 4.4
2017-Jan-09 13:33N 47°32' W 122°25'10 9.9
2017-Jan-09 12:34N 47°23' W 122°21'7 7.0
2017-Jan-09 11:32N 47°16' W 122°25'2 1.5
2017-Jan-09 10:25N 47°18' W 122°26'0 0.2
2017-Jan-09 09:13N 47°18' W 122°26'0 0.4
2017-Jan-09 08:22N 47°17' W 122°25'1 1.5
2017-Jan-09 07:33N 47°16' W 122°24'1 0.6
2017-Jan-09 06:24N 47°17' W 122°25'2 1.8
2017-Jan-09 05:31N 47°15' W 122°26'0 0.0
2017-Jan-09 04:25N 47°15' W 122°26'0 0.0
2017-Jan-09 03:32N 47°15' W 122°26'0 0.0
2017-Jan-09 02:30N 47°15' W 122°26'0 0.0
2017-Jan-09 01:29N 47°15' W 122°26'0 0.0
2017-Jan-09 00:06N 47°15' W 122°26'0 0.0
2017-Jan-08 23:27N 47°15' W 122°26'0 0.0
2017-Jan-08 22:31N 47°15' W 122°26'0 0.0
2017-Jan-08 21:32N 47°15' W 122°26'0 0.0
2017-Jan-08 20:33N 47°15' W 122°26'0 0.0
2017-Jan-08 19:33N 47°15' W 122°26'1 0.6
2017-Jan-08 18:33N 47°16' W 122°26'1 1.0
2017-Jan-08 17:33N 47°16' W 122°25'1 0.6
2017-Jan-08 16:33N 47°17' W 122°25'2 1.5
2017-Jan-08 15:33N 47°16' W 122°23'3 2.9
2017-Jan-08 14:33N 47°18' W 122°26'2 1.6
2017-Jan-08 13:33N 47°16' W 122°25'1 1.0
2017-Jan-08 12:31N 47°15' W 122°26'0 0.0
2017-Jan-08 11:33N 47°15' W 122°26'0 0.0
2017-Jan-08 10:33N 47°15' W 122°26'0 0.0
2017-Jan-08 09:33N 47°15' W 122°26'0 0.0
2017-Jan-08 08:33N 47°15' W 122°26'0 0.0
2017-Jan-08 07:33N 47°15' W 122°26'0 0.0
2017-Jan-08 06:30N 47°15' W 122°26'0 0.0
2017-Jan-08 05:33N 47°15' W 122°26'0 0.0
2017-Jan-08 04:30N 47°15' W 122°26'0 0.0
2017-Jan-08 03:33N 47°15' W 122°26'0 0.0
2017-Jan-08 02:33N 47°15' W 122°26'2 1.6
2017-Jan-08 01:33N 47°16' W 122°24'1 0.9
2017-Jan-08 00:33N 47°16' W 122°23'2 2.4
2017-Jan-07 23:33N 47°17' W 122°26'2 1.9
2017-Jan-07 22:33N 47°15' W 122°26'0 0.0
2017-Jan-07 21:33N 47°15' W 122°26'0 0.0
2017-Jan-07 20:32N 47°15' W 122°26'0 0.0
2017-Jan-07 19:33N 47°15' W 122°26'0 0.0
2017-Jan-07 18:33N 47°15' W 122°26'  
Track history (hours):
 
Tides and Currents Weather Stations Pressure Air Temp Water Temp Dewpoint Dewpoint Depression Visibility Wind Speed Wind Dir Waves Ship Positions

Guide

Owner: Crowley Marine Services, SEATTLE, WA. More information available from US FCC via Universal Licensing System and Coast Guard Vessel Documentation Center.

Last reported at 2017-Jan-17 18:29 UTC. Time now 2017-Jan-17 19:11 UTC.
Position N 47°18' W 122°26'.

Length 34 m; draft 5.1 m.

Type: Tug. MMSI: 366759530.

Date/timePositionNaut miles runAvg speedWind from/ knotsBaromVisibWave heightAir tempDewpointWater temp
2017-Jan-17 18:29N 47°18' W 122°26'0 0.0
2017-Jan-17 17:33N 47°18' W 122°26'0 0.0
2017-Jan-17 16:29N 47°18' W 122°26'2 2.2
2017-Jan-17 15:24N 47°15' W 122°26'0 0.0
2017-Jan-17 14:32N 47°15' W 122°26'0 0.0
2017-Jan-17 13:33N 47°15' W 122°26'1 1.0
2017-Jan-17 12:30N 47°16' W 122°25'1 1.0
2017-Jan-17 11:27N 47°16' W 122°23'1 0.6
2017-Jan-17 10:33N 47°15' W 122°23'2 2.1
2017-Jan-17 09:31N 47°15' W 122°26'0 0.0
2017-Jan-17 08:31N 47°15' W 122°26'0 0.0
2017-Jan-17 07:33N 47°15' W 122°26'0 0.0
2017-Jan-17 06:28N 47°15' W 122°26'0 0.0
2017-Jan-17 05:32N 47°15' W 122°26'0 0.0
2017-Jan-17 04:33N 47°15' W 122°26'0 0.0
2017-Jan-17 03:33N 47°15' W 122°26'0 0.0
2017-Jan-17 02:33N 47°15' W 122°26'2 1.6
2017-Jan-17 01:33N 47°16' W 122°24'0 0.4
2017-Jan-17 00:32N 47°17' W 122°25'2 1.7
2017-Jan-16 23:33N 47°16' W 122°23'2 1.9
2017-Jan-16 22:30N 47°15' W 122°26'0 0.0
2017-Jan-16 21:20N 47°15' W 122°26'0 0.0
2017-Jan-16 20:29N 47°15' W 122°26'0 0.0
2017-Jan-16 19:28N 47°15' W 122°26'0 0.0
2017-Jan-16 18:33N 47°15' W 122°26'0 0.0
2017-Jan-16 17:33N 47°15' W 122°26'0 0.0
2017-Jan-16 16:33N 47°15' W 122°26'0 0.0
2017-Jan-16 15:24N 47°15' W 122°26'0 0.0
2017-Jan-16 14:14N 47°15' W 122°26'0 0.0
2017-Jan-16 13:33N 47°15' W 122°26'0 0.0
2017-Jan-16 12:28N 47°15' W 122°26'0 0.0
2017-Jan-16 04:11N 47°15' W 122°26'1 1.2
2017-Jan-16 03:16N 47°16' W 122°25'1 1.9
2017-Jan-16 02:31N 47°17' W 122°26'2 2.4
2017-Jan-16 01:33N 47°16' W 122°23'0 0.5
2017-Jan-16 00:29N 47°16' W 122°23'0 0.3
2017-Jan-15 23:33N 47°16' W 122°23'2 1.7
2017-Jan-15 22:33N 47°17' W 122°25'2 1.3
2017-Jan-15 21:13N 47°15' W 122°26'0 0.0
2017-Jan-15 20:33N 47°15' W 122°26'0 0.0
2017-Jan-15 19:28N 47°15' W 122°26'0 0.0
2017-Jan-15 18:32N 47°15' W 122°26'1 1.1
2017-Jan-15 17:31N 47°16' W 122°25'0 0.0
2017-Jan-15 16:33N 47°16' W 122°25'2 1.6
2017-Jan-15 15:33N 47°18' W 122°26'0 0.0
2017-Jan-15 14:31N 47°18' W 122°26'1 1.4
2017-Jan-15 13:34N 47°17' W 122°25'1 1.3
2017-Jan-15 12:33N 47°18' W 122°26'1 1.3
2017-Jan-15 11:33N 47°17' W 122°25'2 1.1
2017-Jan-15 10:06N 47°15' W 122°23'2 3.1
2017-Jan-15 09:33N 47°17' W 122°25'1 0.3
2017-Jan-15 05:33N 47°18' W 122°26'3 2.2
2017-Jan-15 04:19N 47°16' W 122°23'2 3.1
2017-Jan-15 03:33N 47°17' W 122°26'2 2.1
2017-Jan-15 02:33N 47°16' W 122°23'1 1.4
2017-Jan-15 01:33N 47°17' W 122°25'2 1.7
2017-Jan-15 00:33N 47°16' W 122°23'0 0.0
2017-Jan-14 23:33N 47°16' W 122°23'2 0.5
2017-Jan-14 19:29N 47°15' W 122°26'5 4.9
2017-Jan-14 18:33N 47°20' W 122°27'8 8.4
2017-Jan-14 17:33N 47°28' W 122°25'8 8.1
2017-Jan-14 16:33N 47°36' W 122°22'1 1.2
2017-Jan-14 15:33N 47°35' W 122°21'0 0.0
2017-Jan-14 14:33N 47°35' W 122°21'0 0.0
2017-Jan-14 13:33N 47°35' W 122°21'0 0.0
2017-Jan-14 12:33N 47°35' W 122°21'0 0.0
2017-Jan-14 11:33N 47°35' W 122°21'0 0.0
2017-Jan-14 10:33N 47°35' W 122°21'0 0.0
2017-Jan-14 09:33N 47°35' W 122°21'0 0.0
2017-Jan-14 08:33N 47°35' W 122°21'0 0.0
2017-Jan-14 07:33N 47°35' W 122°21'0 0.1
2017-Jan-14 06:33N 47°35' W 122°21'4 3.8
2017-Jan-14 05:33N 47°33' W 122°25'1110.8
2017-Jan-14 04:33N 47°22' W 122°22'6 6.3
2017-Jan-14 03:33N 47°17' W 122°25'0 0.1
2017-Jan-13 23:33N 47°17' W 122°26'0 0.3
2017-Jan-13 22:33N 47°17' W 122°25'2 1.9
2017-Jan-13 21:33N 47°16' W 122°23'2 1.6
2017-Jan-13 20:18N 47°15' W 122°26'0 0.0
2017-Jan-13 19:33N 47°15' W 122°26'0 0.0
2017-Jan-13 18:33N 47°15' W 122°26'0 0.0
2017-Jan-13 17:33N 47°15' W 122°26'1 0.9
2017-Jan-13 16:33N 47°16' W 122°26'2 2.4
2017-Jan-13 15:33N 47°16' W 122°23'3 2.2
2017-Jan-13 14:15N 47°18' W 122°26'0 0.2
2017-Jan-13 13:33N 47°18' W 122°26'0 0.0
2017-Jan-13 12:33N 47°18' W 122°26'0 0.0
2017-Jan-13 11:33N 47°18' W 122°26'0 0.0
2017-Jan-13 10:33N 47°18' W 122°26'0 0.0
2017-Jan-13 09:31N 47°18' W 122°26'0 0.0
2017-Jan-13 08:33N 47°18' W 122°26'0 0.0
2017-Jan-13 07:14N 47°18' W 122°26'0 0.0
2017-Jan-13 06:33N 47°18' W 122°26'0 0.0
2017-Jan-13 05:33N 47°18' W 122°26'3 2.7
2017-Jan-13 04:31N 47°16' W 122°23'1 1.0
2017-Jan-13 03:33N 47°16' W 122°24'2 1.8
2017-Jan-13 02:33N 47°17' W 122°26'1 1.2
2017-Jan-13 01:33N 47°16' W 122°26'1 0.9
2017-Jan-13 00:32N 47°15' W 122°26'0 0.0
2017-Jan-12 23:33N 47°15' W 122°26'0 0.0
2017-Jan-12 22:33N 47°15' W 122°26'0 0.0
2017-Jan-12 21:33N 47°15' W 122°26'0 0.0
2017-Jan-12 20:33N 47°15' W 122°26'0 0.0
2017-Jan-12 19:33N 47°15' W 122°26'0 0.0
2017-Jan-12 18:33N 47°15' W 122°26'0 0.0
2017-Jan-12 17:33N 47°15' W 122°26'0 0.0
2017-Jan-12 16:33N 47°15' W 122°26'0 0.0
2017-Jan-12 15:33N 47°15' W 122°26'1 1.3
2017-Jan-12 14:34N 47°17' W 122°26'0 0.1
2017-Jan-12 13:33N 47°17' W 122°25'0 0.1
2017-Jan-12 12:34N 47°17' W 122°26'1 1.1
2017-Jan-12 11:33N 47°18' W 122°26'0 0.0
2017-Jan-12 10:33N 47°18' W 122°26'0 0.0
2017-Jan-12 09:33N 47°18' W 122°26'0 0.0
2017-Jan-12 08:33N 47°18' W 122°26'0 0.0
2017-Jan-12 07:33N 47°18' W 122°26'0 0.0
2017-Jan-12 06:28N 47°18' W 122°26'0 0.0
2017-Jan-12 05:32N 47°18' W 122°26'0 0.0
2017-Jan-12 04:33N 47°18' W 122°26'0 0.0
2017-Jan-12 03:33N 47°18' W 122°26'2 2.3
2017-Jan-12 02:33N 47°16' W 122°24'0 0.0
2017-Jan-12 01:22N 47°16' W 122°24'0 0.5
2017-Jan-12 00:32N 47°16' W 122°23'3 3.2
2017-Jan-11 23:30N 47°18' W 122°27'7 7.0
2017-Jan-11 22:33N 47°24' W 122°22'1111.0
2017-Jan-11 21:33N 47°34' W 122°26'3 3.5
2017-Jan-11 20:33N 47°35' W 122°21'0 0.0
2017-Jan-11 19:33N 47°35' W 122°21'0 0.0
2017-Jan-11 18:33N 47°35' W 122°21'0 0.2
2017-Jan-11 17:33N 47°35' W 122°21'4 4.4
2017-Jan-11 16:33N 47°32' W 122°25'9 8.7
2017-Jan-11 15:33N 47°24' W 122°22'7 3.3
2017-Jan-11 13:31N 47°18' W 122°26'0 0.0
2017-Jan-11 12:11N 47°18' W 122°26'3 3.5
2017-Jan-11 11:26N 47°16' W 122°23'0 0.3
2017-Jan-11 10:33N 47°16' W 122°24'2 2.3
2017-Jan-11 09:31N 47°18' W 122°26'0 0.1
2017-Jan-11 07:31N 47°18' W 122°26'3 2.6
2017-Jan-11 06:24N 47°15' W 122°23'1 1.0
2017-Jan-11 05:28N 47°16' W 122°24'2 2.2
2017-Jan-11 04:32N 47°18' W 122°26'3 2.2
2017-Jan-11 03:19N 47°16' W 122°23'2 2.7
2017-Jan-11 02:33N 47°17' W 122°26'1 1.1
2017-Jan-11 01:33N 47°16' W 122°25'1 0.5
2017-Jan-10 23:21N 47°15' W 122°26'0 0.0
2017-Jan-10 22:30N 47°15' W 122°26'0 0.1
2017-Jan-10 21:33N 47°15' W 122°26'1 1.5
2017-Jan-10 20:33N 47°17' W 122°25'2 1.5
2017-Jan-10 19:33N 47°15' W 122°26'0 0.0
2017-Jan-10 18:33N 47°15' W 122°26'0 0.0
2017-Jan-10 17:33N 47°15' W 122°26'0 0.0
2017-Jan-10 16:33N 47°15' W 122°26'0 0.3
2017-Jan-10 15:33N 47°16' W 122°26'2 2.0
2017-Jan-10 14:27N 47°16' W 122°23'2 2.4
2017-Jan-10 13:33N 47°17' W 122°25'2 2.0
2017-Jan-10 12:33N 47°16' W 122°23'2 2.0
2017-Jan-10 11:33N 47°15' W 122°26'0 0.0
2017-Jan-10 10:33N 47°15' W 122°26'0 0.0
2017-Jan-10 09:33N 47°15' W 122°26'0 0.0
2017-Jan-10 08:33N 47°15' W 122°26'0 0.0
2017-Jan-10 07:33N 47°15' W 122°26'0 0.0
2017-Jan-10 06:31N 47°15' W 122°26'0 0.0
2017-Jan-10 05:33N 47°15' W 122°26'0 0.0
2017-Jan-10 04:31N 47°15' W 122°26'0 0.0
2017-Jan-10 03:33N 47°15' W 122°26'0 0.0
2017-Jan-10 02:31N 47°15' W 122°26'2 1.6
2017-Jan-10 01:26N 47°16' W 122°24'1 0.7
2017-Jan-10 00:29N 47°15' W 122°23'2 0.5
2017-Jan-09 20:08N 47°15' W 122°26'5 7.9
2017-Jan-09 19:33N 47°20' W 122°27'9 8.9
2017-Jan-09 18:33N 47°28' W 122°25'7 7.5
2017-Jan-09 17:33N 47°35' W 122°21'0 0.0
2017-Jan-09 16:33N 47°35' W 122°21'0 0.1
2017-Jan-09 15:33N 47°35' W 122°21'0 0.3
2017-Jan-09 14:33N 47°35' W 122°21'4 4.4
2017-Jan-09 13:33N 47°32' W 122°25'10 9.9
2017-Jan-09 12:34N 47°23' W 122°21'7 7.0
2017-Jan-09 11:32N 47°16' W 122°25'2 1.5
2017-Jan-09 10:25N 47°18' W 122°26'0 0.2
2017-Jan-09 09:13N 47°18' W 122°26'0 0.4
2017-Jan-09 08:22N 47°17' W 122°25'1 1.5
2017-Jan-09 07:33N 47°16' W 122°24'1 0.6
2017-Jan-09 06:24N 47°17' W 122°25'2 1.8
2017-Jan-09 05:31N 47°15' W 122°26'0 0.0
2017-Jan-09 04:25N 47°15' W 122°26'0 0.0
2017-Jan-09 03:32N 47°15' W 122°26'0 0.0
2017-Jan-09 02:30N 47°15' W 122°26'0 0.0
2017-Jan-09 01:29N 47°15' W 122°26'0 0.0
2017-Jan-09 00:06N 47°15' W 122°26'0 0.0
2017-Jan-08 23:27N 47°15' W 122°26'0 0.0
2017-Jan-08 22:31N 47°15' W 122°26'0 0.0
2017-Jan-08 21:32N 47°15' W 122°26'0 0.0
2017-Jan-08 20:33N 47°15' W 122°26'0 0.0
2017-Jan-08 19:33N 47°15' W 122°26'1 0.6
2017-Jan-08 18:33N 47°16' W 122°26'1 1.0
2017-Jan-08 17:33N 47°16' W 122°25'1 0.6
2017-Jan-08 16:33N 47°17' W 122°25'2 1.5
2017-Jan-08 15:33N 47°16' W 122°23'3 2.9
2017-Jan-08 14:33N 47°18' W 122°26'2 1.6
2017-Jan-08 13:33N 47°16' W 122°25'1 1.0
2017-Jan-08 12:31N 47°15' W 122°26'0 0.0
2017-Jan-08 11:33N 47°15' W 122°26'0 0.0
2017-Jan-08 10:33N 47°15' W 122°26'0 0.0
2017-Jan-08 09:33N 47°15' W 122°26'0 0.0
2017-Jan-08 08:33N 47°15' W 122°26'0 0.0
2017-Jan-08 07:33N 47°15' W 122°26'0 0.0
2017-Jan-08 06:30N 47°15' W 122°26'0 0.0
2017-Jan-08 05:33N 47°15' W 122°26'0 0.0
2017-Jan-08 04:30N 47°15' W 122°26'0 0.0
2017-Jan-08 03:33N 47°15' W 122°26'0 0.0
2017-Jan-08 02:33N 47°15' W 122°26'2 1.6
2017-Jan-08 01:33N 47°16' W 122°24'1 0.9
2017-Jan-08 00:33N 47°16' W 122°23'2 2.4
2017-Jan-07 23:33N 47°17' W 122°26'2 1.9
2017-Jan-07 22:33N 47°15' W 122°26'0 0.0
2017-Jan-07 21:33N 47°15' W 122°26'0 0.0
2017-Jan-07 20:32N 47°15' W 122°26'0 0.0
2017-Jan-07 19:33N 47°15' W 122°26'0 0.0
2017-Jan-07 18:33N 47°15' W 122°26'  

Dump ship's entire track history